Terminal Aerodrome Forecast
Issued by NWS

Home | Current Version | Previous Version | Text Only | Print | Product List | Glossary On
Versions: 1 2 3 4 5 6 7 8 9 10 11 12 13 14 15
000
FTUS46 KSEW 011408 AAA
TAFBFI
TAF AMD
KBFI 011408Z 0114/0212 17008KT P6SM -RA BKN020 OVC040
     FM011900 17008KT P6SM -RA SCT025 BKN040 OVC060
     FM012200 19008KT P6SM -SHRA SCT035 BKN050
     FM020900 19008KT P6SM BKN028 OVC045=

USA.gov is the U.S. government's official web portal to all federal, state and local government web resources and services.